createdAt,value
2024-02-29T00:01:15.852Z,93.52
2024-02-29T00:04:17.936Z,95.64
2024-02-29T00:07:19.748Z,97.22
2024-02-29T00:10:22.115Z,97.74
2024-02-29T00:13:24.419Z,96.25
2024-02-29T00:16:26.217Z,93.99
2024-02-29T00:19:29.080Z,94.81
2024-02-29T00:22:30.927Z,96.13
2024-02-29T00:25:32.716Z,96.76
2024-02-29T00:28:34.546Z,96.08
2024-02-29T00:31:36.479Z,97.63
2024-02-29T00:34:38.266Z,96.61
2024-02-29T00:37:40.124Z,97.02
2024-02-29T00:40:41.905Z,96.92
2024-02-29T00:43:43.747Z,97.35
2024-02-29T00:46:45.580Z,97.41
2024-02-29T00:49:47.360Z,96.20
2024-02-29T00:52:49.083Z,96.57
2024-02-29T00:55:51.120Z,96.62
2024-02-29T00:58:52.904Z,96.94
2024-02-29T01:01:56.648Z,97.20
2024-02-29T01:04:58.788Z,96.70
2024-02-29T01:08:00.567Z,97.15
2024-02-29T01:11:04.792Z,96.16
2024-02-29T01:14:06.729Z,96.17
2024-02-29T01:17:08.485Z,95.33
2024-02-29T01:20:10.861Z,95.54
2024-02-29T01:23:12.596Z,96.84
2024-02-29T01:26:14.676Z,95.12
2024-02-29T01:29:16.483Z,95.65
2024-02-29T01:32:22.792Z,96.20
2024-02-29T01:35:29.000Z,96.65
2024-02-29T01:38:33.133Z,96.75
2024-02-29T01:41:34.897Z,98.45
2024-02-29T01:44:48.295Z,98.02
2024-02-29T01:47:50.069Z,98.04
2024-02-29T01:50:52.099Z,99.45
2024-02-29T01:53:53.885Z,98.72
2024-02-29T01:56:56.733Z,99.13
2024-02-29T01:59:58.889Z,98.33
2024-02-29T02:03:00.680Z,97.57
2024-02-29T02:06:02.492Z,97.61
2024-02-29T02:09:04.985Z,97.50
2024-02-29T02:12:07.217Z,97.84
2024-02-29T02:15:09.562Z,97.88
2024-02-29T02:18:11.377Z,98.53
2024-02-29T02:21:13.178Z,96.70
2024-02-29T02:24:15.014Z,96.90
2024-02-29T02:27:16.825Z,97.85
2024-02-29T02:30:18.584Z,97.91
2024-02-29T02:33:24.205Z,98.16
2024-02-29T02:36:26.021Z,98.38
2024-02-29T02:39:27.912Z,98.75
2024-02-29T02:42:29.714Z,99.94
2024-02-29T02:45:31.868Z,97.96
2024-02-29T02:48:33.686Z,99.02
2024-02-29T02:51:35.453Z,97.43
2024-02-29T02:54:37.845Z,99.49
2024-02-29T02:57:39.680Z,98.79
2024-02-29T03:00:41.497Z,98.46
2024-02-29T03:03:43.309Z,99.36
2024-02-29T03:06:45.104Z,98.46
2024-02-29T03:09:47.501Z,98.55
2024-02-29T03:12:50.326Z,98.98
2024-02-29T03:15:52.144Z,99.89
2024-02-29T03:18:54.147Z,99.91
2024-02-29T03:21:55.952Z,100.00
2024-02-29T03:24:58.369Z,100.00
2024-02-29T03:28:00.193Z,100.00
2024-02-29T03:31:02.107Z,100.00
2024-02-29T03:34:04.214Z,100.00
2024-02-29T03:37:06.213Z,100.00
2024-02-29T03:40:08.945Z,100.00
2024-02-29T03:43:11.953Z,100.00
2024-02-29T03:46:13.844Z,100.00
2024-02-29T03:49:15.715Z,100.00
2024-02-29T03:52:17.641Z,100.00
2024-02-29T03:55:19.462Z,100.00
2024-02-29T03:58:21.382Z,100.00
2024-02-29T04:01:23.489Z,100.00
2024-02-29T04:04:25.368Z,100.00
2024-02-29T04:07:27.108Z,100.00
2024-02-29T04:10:29.080Z,100.00
2024-02-29T04:13:31.855Z,100.00
2024-02-29T04:16:37.876Z,100.00
2024-02-29T04:19:39.660Z,100.00
2024-02-29T04:22:41.604Z,100.00
2024-02-29T04:25:46.451Z,100.00
2024-02-29T04:28:49.486Z,100.00
2024-02-29T04:31:51.256Z,100.00
2024-02-29T04:34:53.949Z,100.00
2024-02-29T04:37:55.732Z,100.00
2024-02-29T04:40:57.493Z,100.00
2024-02-29T04:43:59.241Z,100.00
2024-02-29T04:47:01.094Z,100.00
2024-02-29T04:50:04.413Z,100.00
2024-02-29T04:53:06.302Z,100.00
2024-02-29T04:56:08.144Z,100.00
2024-02-29T04:59:11.258Z,100.00
2024-02-29T05:02:13.176Z,100.00
2024-02-29T05:05:15.446Z,100.00
2024-02-29T05:08:17.239Z,100.00
2024-02-29T05:11:19.110Z,100.00
2024-02-29T05:14:21.261Z,100.00
2024-02-29T05:17:23.131Z,100.00
2024-02-29T05:20:24.971Z,99.14
2024-02-29T05:23:26.748Z,100.00
2024-02-29T05:26:28.489Z,100.00
2024-02-29T05:29:30.266Z,100.00
2024-02-29T05:32:32.125Z,100.00
2024-02-29T05:35:34.430Z,100.00
2024-02-29T05:38:36.189Z,100.00
2024-02-29T05:41:38.168Z,100.00
2024-02-29T05:44:40.639Z,100.00
2024-02-29T05:47:42.650Z,100.00
2024-02-29T05:50:44.475Z,100.00
2024-02-29T05:53:46.362Z,100.00
2024-02-29T05:56:48.187Z,100.00
2024-02-29T05:59:49.955Z,100.00
2024-02-29T06:02:53.108Z,100.00
2024-02-29T06:05:55.225Z,100.00
2024-02-29T06:08:56.988Z,100.00
2024-02-29T06:11:58.757Z,100.00
2024-02-29T06:15:05.240Z,100.00
2024-02-29T06:18:08.481Z,100.00
2024-02-29T06:21:10.329Z,100.00
2024-02-29T06:24:12.127Z,100.00
2024-02-29T06:27:13.883Z,100.00
2024-02-29T06:30:18.012Z,100.00
2024-02-29T06:33:22.683Z,100.00
2024-02-29T06:36:24.769Z,100.00
2024-02-29T06:39:26.628Z,100.00
2024-02-29T06:42:28.430Z,100.00
2024-02-29T06:45:30.223Z,99.95
2024-02-29T06:48:32.317Z,100.00
2024-02-29T06:51:34.806Z,100.00
2024-02-29T06:54:37.152Z,99.21
2024-02-29T06:57:39.135Z,100.00
2024-02-29T07:00:41.830Z,99.58
2024-02-29T07:03:43.710Z,99.55
2024-02-29T07:06:45.581Z,99.80
2024-02-29T07:09:47.893Z,97.26
2024-02-29T07:12:50.482Z,96.21
2024-02-29T07:15:52.656Z,94.65
2024-02-29T07:18:54.534Z,94.85
2024-02-29T07:21:56.375Z,93.72
2024-02-29T07:24:58.380Z,93.26
2024-02-29T07:28:00.305Z,93.00
2024-02-29T07:31:03.023Z,93.79
2024-02-29T07:34:05.113Z,94.13
2024-02-29T07:37:07.295Z,93.88
2024-02-29T07:40:15.227Z,94.04
2024-02-29T07:43:23.441Z,92.46
2024-02-29T07:46:25.521Z,92.74
2024-02-29T07:49:27.961Z,91.66
2024-02-29T07:52:29.835Z,91.57
2024-02-29T07:55:34.579Z,90.15
2024-02-29T07:58:36.399Z,89.14
2024-02-29T08:01:44.092Z,89.59
2024-02-29T08:04:48.989Z,89.17
2024-02-29T08:07:50.818Z,88.48
2024-02-29T08:10:54.744Z,89.14
2024-02-29T08:13:57.306Z,87.96
2024-02-29T08:16:59.731Z,87.81
2024-02-29T08:20:03.815Z,88.85
2024-02-29T08:23:05.723Z,88.15
2024-02-29T08:26:09.073Z,86.64
2024-02-29T08:29:14.668Z,86.23
2024-02-29T08:32:16.779Z,85.15
2024-02-29T08:35:19.871Z,85.65
2024-02-29T08:38:21.920Z,85.04
2024-02-29T08:41:23.724Z,84.16
2024-02-29T08:44:25.454Z,83.04
2024-02-29T08:47:27.259Z,81.78
2024-02-29T08:50:29.084Z,80.62
2024-02-29T08:53:30.858Z,80.43
2024-02-29T08:56:32.653Z,80.48
2024-02-29T08:59:34.843Z,80.58
2024-02-29T09:02:36.731Z,80.42
2024-02-29T09:05:38.503Z,76.72
2024-02-29T09:08:41.072Z,76.26
2024-02-29T09:11:42.884Z,76.45
2024-02-29T09:14:46.224Z,75.41
2024-02-29T09:17:53.822Z,73.50
2024-02-29T09:20:58.449Z,73.05
2024-02-29T09:24:03.762Z,73.28
2024-02-29T09:27:06.029Z,72.52
2024-02-29T09:30:08.085Z,71.88
2024-02-29T09:33:09.843Z,71.33
2024-02-29T09:36:12.453Z,70.15
2024-02-29T09:39:14.360Z,71.61
2024-02-29T09:42:17.213Z,72.60
2024-02-29T09:45:25.419Z,71.54
2024-02-29T09:48:28.750Z,71.69
2024-02-29T09:51:31.653Z,71.06
2024-02-29T09:54:35.577Z,70.95
2024-02-29T09:57:37.783Z,71.36
2024-02-29T10:00:39.680Z,71.99
2024-02-29T10:03:43.487Z,71.85
2024-02-29T10:06:45.968Z,71.42
2024-02-29T10:09:49.406Z,71.72
2024-02-29T10:12:58.235Z,70.78
2024-02-29T10:16:00.215Z,69.44
2024-02-29T10:19:03.768Z,70.12
2024-02-29T10:22:05.671Z,69.09
2024-02-29T10:25:16.593Z,70.05
2024-02-29T10:28:20.478Z,70.35
2024-02-29T10:31:22.298Z,68.41
2024-02-29T10:34:24.618Z,67.23
2024-02-29T10:37:26.494Z,69.01
2024-02-29T10:40:28.391Z,68.46
2024-02-29T10:43:34.802Z,67.83
2024-02-29T10:46:42.952Z,68.86
2024-02-29T10:49:53.557Z,66.40
2024-02-29T10:53:22.469Z,66.98
2024-02-29T10:56:28.692Z,66.64
2024-02-29T10:59:31.739Z,68.09
2024-02-29T11:02:34.003Z,66.78
2024-02-29T11:05:38.158Z,66.29
2024-02-29T11:08:41.101Z,66.94
2024-02-29T11:11:47.985Z,67.58
2024-02-29T11:14:50.121Z,66.96
2024-02-29T11:17:51.933Z,69.10
2024-02-29T11:21:06.844Z,67.47
2024-02-29T11:24:10.897Z,67.53
2024-02-29T11:27:13.484Z,68.47
2024-02-29T11:30:19.980Z,67.52
2024-02-29T11:33:21.875Z,66.85
2024-02-29T11:36:24.813Z,66.73
2024-02-29T11:39:26.613Z,67.14
2024-02-29T11:42:28.515Z,66.39
2024-02-29T11:45:30.458Z,65.89
2024-02-29T11:48:32.249Z,65.79
2024-02-29T11:51:34.073Z,66.39
2024-02-29T11:54:36.000Z,65.88
2024-02-29T11:57:37.827Z,66.34
2024-02-29T12:00:39.778Z,64.62
2024-02-29T12:09:09.724Z,65.36
2024-02-29T12:12:18.929Z,65.69
2024-02-29T12:15:45.053Z,65.25
2024-02-29T12:18:53.883Z,64.37
2024-02-29T12:21:56.059Z,64.89
2024-02-29T12:24:58.667Z,65.48
2024-02-29T12:28:00.826Z,65.86
2024-02-29T12:31:02.670Z,65.93
2024-02-29T12:34:04.688Z,63.87
2024-02-29T12:37:20.395Z,65.27
2024-02-29T12:40:22.383Z,65.39
2024-02-29T12:43:24.258Z,64.30
2024-02-29T12:46:27.637Z,64.46
2024-02-29T12:49:29.646Z,65.08
2024-02-29T12:52:31.709Z,64.31
2024-02-29T12:55:33.654Z,62.99
2024-02-29T12:58:35.599Z,63.18
2024-02-29T13:01:38.989Z,63.60
2024-02-29T13:04:41.467Z,62.20
2024-02-29T13:07:43.886Z,61.17
2024-02-29T13:10:45.646Z,60.20
2024-02-29T13:13:47.679Z,60.64
2024-02-29T13:16:49.824Z,60.00
2024-02-29T13:19:51.543Z,58.44
2024-02-29T13:22:53.285Z,57.97
2024-02-29T13:25:55.508Z,57.78
2024-02-29T13:28:57.469Z,58.03
2024-02-29T13:32:01.207Z,56.88
2024-02-29T13:35:05.284Z,58.29
2024-02-29T13:38:07.147Z,57.06
2024-02-29T13:41:09.126Z,57.82
2024-02-29T13:44:10.971Z,56.73
2024-02-29T13:47:16.429Z,57.80
2024-02-29T13:50:20.540Z,56.70
2024-02-29T13:53:22.451Z,57.97
2024-02-29T13:56:26.743Z,57.07
2024-02-29T13:59:31.622Z,57.82
2024-02-29T14:02:34.171Z,57.97
2024-02-29T14:05:36.257Z,57.57
2024-02-29T14:08:38.086Z,56.77
2024-02-29T14:11:40.727Z,56.47
2024-02-29T14:14:42.768Z,58.66
2024-02-29T14:17:44.632Z,58.97
2024-02-29T14:20:46.412Z,57.71
2024-02-29T14:23:48.190Z,57.82
2024-02-29T14:26:52.668Z,58.63
2024-02-29T14:29:54.522Z,59.42
2024-02-29T14:32:58.838Z,59.12
2024-02-29T14:36:01.016Z,60.28
2024-02-29T14:39:03.396Z,60.68
2024-02-29T14:42:24.195Z,62.02
2024-02-29T14:45:26.390Z,62.12
2024-02-29T14:48:28.307Z,62.51
2024-02-29T14:51:30.256Z,62.11
2024-02-29T14:54:32.332Z,62.71
2024-02-29T14:57:34.788Z,63.47
2024-02-29T15:00:36.574Z,63.30
2024-02-29T15:03:38.490Z,64.02
2024-02-29T15:06:40.994Z,63.53
2024-02-29T15:09:42.991Z,64.23
2024-02-29T15:12:51.810Z,64.99
2024-02-29T15:16:20.905Z,65.05
2024-02-29T15:19:27.030Z,64.66
2024-02-29T15:22:29.192Z,65.87
2024-02-29T15:25:30.998Z,66.27
2024-02-29T15:28:33.632Z,66.05
2024-02-29T15:31:37.110Z,67.32
2024-02-29T15:34:38.905Z,67.38
2024-02-29T15:37:40.703Z,67.11
2024-02-29T15:40:44.359Z,66.62
2024-02-29T15:43:46.914Z,66.83
2024-02-29T15:46:51.364Z,67.16
2024-02-29T15:49:53.242Z,66.79
2024-02-29T15:52:56.265Z,66.93
2024-02-29T15:56:00.183Z,67.40
2024-02-29T15:59:03.154Z,67.46
2024-02-29T16:02:04.963Z,67.80
2024-02-29T16:05:07.200Z,67.16
2024-02-29T16:08:09.090Z,68.22
2024-02-29T16:11:11.636Z,68.21
2024-02-29T16:14:13.865Z,68.62
2024-02-29T16:17:15.657Z,68.58
2024-02-29T16:20:17.685Z,68.93
2024-02-29T16:23:20.249Z,69.63
2024-02-29T16:26:22.316Z,70.18
2024-02-29T16:29:24.073Z,70.52
2024-02-29T16:32:26.193Z,70.75
2024-02-29T16:35:28.176Z,70.55
2024-02-29T16:38:30.233Z,71.35
2024-02-29T16:41:32.359Z,71.81
2024-02-29T16:44:34.325Z,71.68
2024-02-29T16:47:36.256Z,72.68
2024-02-29T16:51:05.965Z,73.03
2024-02-29T16:54:07.805Z,72.89
2024-02-29T16:57:11.958Z,73.06
2024-02-29T17:00:19.231Z,73.52
2024-02-29T17:03:21.635Z,74.28
2024-02-29T17:06:23.884Z,75.44
2024-02-29T17:09:27.731Z,75.53
2024-02-29T17:12:31.900Z,75.75
2024-02-29T17:15:36.573Z,75.68
2024-02-29T17:18:39.921Z,76.27
2024-02-29T17:21:43.009Z,76.90
2024-02-29T17:24:46.682Z,76.90
2024-02-29T17:27:48.616Z,76.34
2024-02-29T17:30:50.644Z,75.98
2024-02-29T17:33:53.129Z,76.40
2024-02-29T17:36:54.939Z,76.42
2024-02-29T17:39:57.159Z,76.58
2024-02-29T17:42:59.334Z,76.44
2024-02-29T17:46:01.430Z,75.91
2024-02-29T17:49:03.731Z,76.09
2024-02-29T17:52:07.558Z,75.98
2024-02-29T17:55:09.690Z,76.04
2024-02-29T17:58:12.012Z,75.54
2024-02-29T18:01:13.930Z,75.50
2024-02-29T18:04:15.753Z,75.83
2024-02-29T18:07:17.682Z,75.81
2024-02-29T18:10:19.811Z,75.94
2024-02-29T18:13:22.014Z,76.12
2024-02-29T18:16:24.182Z,76.14
2024-02-29T18:19:27.227Z,76.65
2024-02-29T18:22:29.515Z,76.99
2024-02-29T18:25:31.460Z,76.94
2024-02-29T18:28:34.824Z,77.26
2024-02-29T18:31:36.904Z,77.70
2024-02-29T18:34:39.139Z,77.24
2024-02-29T18:37:41.496Z,77.91
2024-02-29T18:40:44.809Z,78.66
2024-02-29T18:43:47.377Z,78.34
2024-02-29T18:46:49.290Z,78.00
2024-02-29T18:49:51.317Z,78.12
2024-02-29T18:52:53.461Z,78.20
2024-02-29T18:55:55.595Z,77.89
2024-02-29T18:58:57.967Z,78.04
2024-02-29T19:02:01.575Z,77.55
2024-02-29T19:05:04.304Z,77.31
2024-02-29T19:08:07.026Z,77.22
2024-02-29T19:11:09.099Z,76.77
2024-02-29T19:14:12.534Z,76.30
2024-02-29T19:17:14.374Z,76.03
2024-02-29T19:20:16.633Z,75.91
2024-02-29T19:23:18.534Z,76.17
2024-02-29T19:26:21.563Z,75.89
2024-02-29T19:29:23.339Z,76.17
2024-02-29T19:32:27.160Z,76.20
2024-02-29T19:35:29.317Z,76.01
2024-02-29T19:38:31.134Z,75.96
2024-02-29T19:41:33.310Z,76.18
2024-02-29T19:44:35.361Z,75.65
2024-02-29T19:47:41.670Z,75.56
2024-02-29T19:50:43.449Z,75.59
2024-02-29T19:53:45.533Z,75.29
2024-02-29T19:56:47.940Z,75.50
2024-02-29T19:59:49.928Z,76.14
2024-02-29T20:02:51.775Z,75.93
2024-02-29T20:05:53.887Z,76.04
2024-02-29T20:08:56.094Z,75.97
2024-02-29T20:11:58.185Z,76.21
2024-02-29T20:15:01.505Z,76.53
2024-02-29T20:18:03.755Z,76.92
2024-02-29T20:21:05.981Z,77.26
2024-02-29T20:24:08.798Z,77.33
2024-02-29T20:27:11.168Z,77.17
2024-02-29T20:30:15.787Z,77.54
2024-02-29T20:33:17.681Z,77.80
2024-02-29T20:36:19.479Z,77.71
2024-02-29T20:39:21.299Z,77.65
2024-02-29T20:42:23.097Z,76.58
2024-02-29T20:45:25.892Z,77.74
2024-02-29T20:48:27.663Z,77.43
2024-02-29T20:51:29.531Z,77.44
2024-02-29T20:54:31.846Z,76.99
2024-02-29T20:57:33.807Z,77.25
2024-02-29T21:00:36.253Z,77.25
2024-02-29T21:03:38.037Z,77.09
2024-02-29T21:06:39.861Z,77.48
2024-02-29T21:09:41.752Z,78.01
2024-02-29T21:12:43.837Z,78.02
2024-02-29T21:15:45.684Z,78.38
2024-02-29T21:18:47.451Z,78.81
2024-02-29T21:21:49.312Z,78.60
2024-02-29T21:24:51.134Z,78.79
2024-02-29T21:27:52.986Z,79.09
2024-02-29T21:30:56.251Z,79.65
2024-02-29T21:33:58.450Z,79.81
2024-02-29T21:37:00.556Z,79.99
2024-02-29T21:40:02.793Z,80.04
2024-02-29T21:43:05.013Z,79.67
2024-02-29T21:46:08.689Z,79.59
2024-02-29T21:49:10.500Z,79.50
2024-02-29T21:52:13.001Z,79.91
2024-02-29T21:55:16.483Z,79.98
2024-02-29T21:58:18.931Z,80.63
2024-02-29T22:01:20.860Z,80.65
2024-02-29T22:04:23.180Z,82.16
2024-02-29T22:07:25.128Z,81.86
2024-02-29T22:10:26.998Z,82.02
2024-02-29T22:13:29.002Z,82.09
2024-02-29T22:16:30.886Z,82.73
2024-02-29T22:19:33.326Z,82.96
2024-02-29T22:22:35.802Z,82.73
2024-02-29T22:25:37.626Z,82.72
2024-02-29T22:28:39.370Z,83.87
2024-02-29T22:31:42.279Z,83.45
2024-02-29T22:34:44.185Z,83.72
2024-02-29T22:37:46.048Z,84.70
2024-02-29T22:40:47.823Z,84.30
2024-02-29T22:43:49.859Z,84.78
2024-02-29T22:46:52.559Z,85.01
2024-02-29T22:49:54.375Z,84.59
2024-02-29T22:52:57.928Z,84.50
2024-02-29T22:55:59.953Z,84.43
2024-02-29T22:59:01.826Z,84.81
2024-02-29T23:02:05.169Z,83.53
2024-02-29T23:05:07.337Z,83.80
2024-02-29T23:08:11.363Z,83.04
2024-02-29T23:11:13.492Z,83.11
2024-02-29T23:14:15.441Z,83.45
2024-02-29T23:17:17.525Z,82.48
2024-02-29T23:20:19.470Z,82.02
2024-02-29T23:23:21.268Z,82.16
2024-02-29T23:26:23.032Z,81.17
2024-02-29T23:29:24.887Z,81.53
2024-02-29T23:32:26.623Z,80.60
2024-02-29T23:35:28.381Z,80.94
2024-02-29T23:38:30.110Z,80.48
2024-02-29T23:41:31.930Z,80.31
2024-02-29T23:44:34.207Z,79.81
2024-02-29T23:47:36.010Z,80.21
2024-02-29T23:50:38.305Z,80.22
2024-02-29T23:53:40.109Z,79.89
2024-02-29T23:56:41.894Z,80.05
2024-02-29T23:59:43.656Z,80.74
